createdAt,value
2023-03-27T00:02:30.043Z,77.60
2023-03-27T00:06:02.595Z,78.49
2023-03-27T00:09:24.203Z,78.14
2023-03-27T00:12:48.110Z,79.83
2023-03-27T00:16:12.244Z,78.52
2023-03-27T00:19:33.995Z,79.02
2023-03-27T00:22:56.493Z,78.72
2023-03-27T00:26:18.507Z,79.07
2023-03-27T00:29:40.480Z,78.79
2023-03-27T00:33:04.734Z,78.31
2023-03-27T00:36:26.486Z,78.20
2023-03-27T00:39:50.427Z,78.89
2023-03-27T00:43:27.386Z,78.56
2023-03-27T00:46:49.580Z,79.52
2023-03-27T00:50:19.201Z,80.30
2023-03-27T00:53:42.612Z,81.10
2023-03-27T00:57:07.998Z,80.63
2023-03-27T01:00:33.512Z,81.94
2023-03-27T01:03:59.652Z,82.29
2023-03-27T01:07:22.568Z,82.15
2023-03-27T01:11:24.635Z,80.99
2023-03-27T01:14:49.314Z,80.76
2023-03-27T01:18:25.559Z,81.09
2023-03-27T01:22:09.261Z,81.82
2023-03-27T01:26:12.684Z,81.55
2023-03-27T01:29:43.456Z,80.86
2023-03-27T01:33:42.978Z,82.94
2023-03-27T01:37:30.714Z,82.84
2023-03-27T01:41:32.400Z,82.78
2023-03-27T01:45:04.795Z,82.52
2023-03-27T01:48:34.874Z,82.24
2023-03-27T01:52:02.786Z,81.86
2023-03-27T01:55:30.294Z,81.86
2023-03-27T01:58:55.527Z,81.64
2023-03-27T02:02:33.117Z,82.38
2023-03-27T02:06:07.670Z,82.29
2023-03-27T02:09:44.845Z,82.20
2023-03-27T02:13:13.184Z,82.61
2023-03-27T02:16:42.748Z,81.28
2023-03-27T02:20:14.823Z,81.05
2023-03-27T02:23:38.990Z,81.31
2023-03-27T02:27:18.033Z,82.39
2023-03-27T02:30:44.958Z,82.60
2023-03-27T02:34:31.640Z,83.53
2023-03-27T02:38:19.286Z,84.63
2023-03-27T02:41:56.030Z,85.52
2023-03-27T02:45:38.684Z,85.52
2023-03-27T02:49:05.660Z,84.14
2023-03-27T02:52:33.744Z,83.84
2023-03-27T02:56:02.085Z,85.48
2023-03-27T02:59:31.241Z,85.80
2023-03-27T03:03:11.985Z,85.89
2023-03-27T03:06:42.181Z,86.30
2023-03-27T03:10:09.664Z,86.47
2023-03-27T03:13:34.081Z,86.03
2023-03-27T03:16:57.894Z,86.23
2023-03-27T03:20:22.007Z,86.85
2023-03-27T03:23:43.573Z,86.94
2023-03-27T03:27:21.120Z,86.36
2023-03-27T03:30:46.888Z,86.00
2023-03-27T03:34:12.160Z,86.35
2023-03-27T03:37:38.602Z,86.30
2023-03-27T03:41:00.939Z,86.07
2023-03-27T03:44:22.608Z,85.80
2023-03-27T03:47:45.532Z,86.24
2023-03-27T03:51:07.156Z,85.94
2023-03-27T03:54:31.498Z,85.48
2023-03-27T03:57:53.049Z,85.69
2023-03-27T04:01:20.860Z,86.55
2023-03-27T04:04:46.588Z,86.30
2023-03-27T04:08:08.627Z,86.48
2023-03-27T04:11:30.281Z,85.65
2023-03-27T04:14:52.088Z,86.59
2023-03-27T04:18:15.073Z,86.89
2023-03-27T04:21:42.444Z,87.02
2023-03-27T04:25:08.156Z,86.78
2023-03-27T04:28:34.659Z,86.72
2023-03-27T04:31:59.626Z,86.82
2023-03-27T04:35:23.973Z,85.21
2023-03-27T04:38:45.690Z,86.16
2023-03-27T04:42:07.754Z,86.12
2023-03-27T04:45:33.837Z,85.87
2023-03-27T04:48:56.471Z,87.03
2023-03-27T04:52:18.697Z,86.86
2023-03-27T04:55:40.545Z,85.78
2023-03-27T04:59:07.179Z,85.58
2023-03-27T05:02:29.050Z,85.37
2023-03-27T05:05:50.679Z,86.29
2023-03-27T05:09:14.553Z,86.28
2023-03-27T05:12:45.010Z,86.65
2023-03-27T05:16:07.222Z,86.61
2023-03-27T05:19:31.197Z,85.95
2023-03-27T05:22:56.558Z,86.01
2023-03-27T05:26:19.124Z,86.02
2023-03-27T05:29:46.987Z,85.65
2023-03-27T05:33:14.039Z,84.77
2023-03-27T05:36:35.657Z,85.60
2023-03-27T05:39:57.245Z,85.30
2023-03-27T05:43:21.711Z,86.04
2023-03-27T05:46:45.811Z,85.95
2023-03-27T05:50:08.098Z,85.59
2023-03-27T05:53:31.971Z,85.49
2023-03-27T05:56:53.635Z,85.55
2023-03-27T06:00:16.504Z,85.03
2023-03-27T06:03:41.212Z,85.04
2023-03-27T06:07:03.003Z,84.22
2023-03-27T06:10:29.229Z,84.82
2023-03-27T06:13:55.829Z,85.45
2023-03-27T06:17:19.977Z,84.34
2023-03-27T06:20:44.170Z,84.62
2023-03-27T06:24:06.121Z,84.58
2023-03-27T06:27:31.763Z,85.39
2023-03-27T06:30:53.466Z,84.70
2023-03-27T06:34:18.613Z,85.94
2023-03-27T06:37:42.183Z,86.19
2023-03-27T06:41:04.686Z,85.93
2023-03-27T06:44:26.538Z,86.07
2023-03-27T06:48:18.013Z,86.31
2023-03-27T06:51:41.065Z,86.03
2023-03-27T06:55:04.121Z,85.95
2023-03-27T06:58:28.058Z,85.80
2023-03-27T07:01:52.444Z,85.27
2023-03-27T07:05:15.720Z,85.49
2023-03-27T07:08:37.375Z,85.65
2023-03-27T07:11:58.993Z,85.53
2023-03-27T07:15:25.157Z,84.10
2023-03-27T07:18:51.675Z,84.12
2023-03-27T07:22:13.437Z,84.58
2023-03-27T07:25:38.290Z,84.45
2023-03-27T07:29:03.151Z,84.83
2023-03-27T07:32:36.046Z,84.50
2023-03-27T07:35:58.649Z,84.71
2023-03-27T07:39:20.579Z,83.84
2023-03-27T07:42:46.094Z,84.57
2023-03-27T07:46:10.729Z,83.82
2023-03-27T07:49:39.861Z,84.92
2023-03-27T07:53:02.174Z,85.94
2023-03-27T07:56:28.969Z,85.76
2023-03-27T07:59:54.468Z,85.23
2023-03-27T08:03:16.585Z,86.71
2023-03-27T08:06:38.706Z,86.79
2023-03-27T08:10:03.070Z,85.72
2023-03-27T08:13:27.153Z,84.79
2023-03-27T08:16:51.657Z,84.41
2023-03-27T08:20:18.825Z,83.93
2023-03-27T08:23:41.148Z,84.31
2023-03-27T08:27:03.545Z,83.71
2023-03-27T08:30:27.916Z,83.59
2023-03-27T08:33:49.645Z,84.21
2023-03-27T08:37:11.317Z,84.19
2023-03-27T08:40:34.146Z,83.67
2023-03-27T08:43:58.022Z,82.96
2023-03-27T08:47:33.500Z,84.19
2023-03-27T08:50:59.425Z,84.84
2023-03-27T08:54:25.682Z,86.20
2023-03-27T08:57:50.293Z,86.52
2023-03-27T09:01:19.948Z,86.81
2023-03-27T09:05:00.177Z,85.55
2023-03-27T09:08:57.355Z,84.62
2023-03-27T09:12:56.693Z,85.45
2023-03-27T09:16:38.710Z,84.69
2023-03-27T09:20:07.449Z,85.90
2023-03-27T09:23:36.837Z,85.25
2023-03-27T09:27:19.303Z,84.29
2023-03-27T09:30:41.101Z,84.85
2023-03-27T09:34:08.998Z,84.77
2023-03-27T09:37:31.036Z,85.36
2023-03-27T09:41:06.827Z,86.03
2023-03-27T09:44:33.366Z,85.63
2023-03-27T09:48:02.172Z,85.43
2023-03-27T09:51:43.164Z,85.46
2023-03-27T09:55:31.160Z,86.45
2023-03-27T09:58:53.951Z,85.23
2023-03-27T10:02:24.692Z,85.92
2023-03-27T10:06:04.760Z,84.94
2023-03-27T10:09:30.870Z,85.83
2023-03-27T10:12:58.657Z,86.11
2023-03-27T10:16:22.731Z,86.00
2023-03-27T10:19:45.043Z,86.66
2023-03-27T10:23:09.432Z,86.64
2023-03-27T10:26:33.007Z,86.08
2023-03-27T10:29:54.639Z,85.91
2023-03-27T10:33:39.814Z,84.52
2023-03-27T10:37:06.102Z,84.35
2023-03-27T10:40:36.740Z,84.49
2023-03-27T10:44:04.037Z,84.90
2023-03-27T10:47:30.170Z,84.27
2023-03-27T10:50:57.668Z,85.30
2023-03-27T10:54:51.319Z,83.94
2023-03-27T10:58:35.326Z,84.05
2023-03-27T11:02:03.920Z,83.71
2023-03-27T11:05:36.722Z,84.99
2023-03-27T11:09:05.817Z,84.55
2023-03-27T11:12:30.523Z,84.75
2023-03-27T11:16:16.459Z,84.54
2023-03-27T11:19:48.367Z,85.24
2023-03-27T11:23:28.695Z,84.08
2023-03-27T11:27:28.008Z,84.77
2023-03-27T11:31:14.052Z,85.04
2023-03-27T11:34:48.177Z,85.04
2023-03-27T11:38:35.423Z,84.00
2023-03-27T11:41:59.152Z,83.30
2023-03-27T11:45:29.486Z,85.38
2023-03-27T11:49:00.065Z,85.32
2023-03-27T11:52:52.455Z,85.66
2023-03-27T11:56:20.335Z,89.20
2023-03-27T11:59:57.264Z,80.37
2023-03-27T12:03:56.511Z,77.37
2023-03-27T12:07:36.435Z,79.44
2023-03-27T12:11:08.650Z,80.43
2023-03-27T12:14:50.437Z,82.23
2023-03-27T12:19:03.803Z,83.12
2023-03-27T12:22:49.180Z,83.76
2023-03-27T12:26:42.376Z,83.85
2023-03-27T12:30:26.845Z,84.19
2023-03-27T12:34:12.411Z,84.99
2023-03-27T12:38:00.793Z,84.89
2023-03-27T12:41:28.828Z,85.33
2023-03-27T12:45:18.335Z,85.62
2023-03-27T12:49:20.945Z,85.60
2023-03-27T12:52:46.951Z,84.99
2023-03-27T12:56:17.343Z,85.49
2023-03-27T12:59:49.889Z,85.35
2023-03-27T13:03:14.204Z,83.13
2023-03-27T13:06:52.477Z,79.64
2023-03-27T13:10:32.860Z,76.56
2023-03-27T13:14:03.932Z,76.73
2023-03-27T13:18:03.203Z,75.89
2023-03-27T13:21:46.276Z,75.78
2023-03-27T13:25:29.808Z,74.41
2023-03-27T13:28:54.443Z,74.42
2023-03-27T13:32:38.804Z,73.78
2023-03-27T13:36:22.802Z,74.49
2023-03-27T13:40:01.598Z,73.30
2023-03-27T13:43:35.396Z,73.50
2023-03-27T13:47:12.417Z,72.90
2023-03-27T13:50:53.964Z,74.47
2023-03-27T13:54:30.759Z,74.15
2023-03-27T13:58:33.936Z,73.36
2023-03-27T14:02:04.421Z,73.29
2023-03-27T14:05:52.137Z,71.20
2023-03-27T14:09:19.062Z,72.41
2023-03-27T14:12:54.818Z,70.19
2023-03-27T14:16:25.239Z,70.89
2023-03-27T14:20:08.677Z,70.11
2023-03-27T14:23:38.722Z,70.87
2023-03-27T14:27:03.435Z,70.68
2023-03-27T14:30:27.513Z,69.54
2023-03-27T14:33:57.962Z,70.70
2023-03-27T14:37:22.664Z,69.97
2023-03-27T14:40:54.855Z,70.26
2023-03-27T14:44:18.852Z,71.80
2023-03-27T14:47:42.995Z,69.32
2023-03-27T14:51:19.454Z,68.81
2023-03-27T14:54:54.413Z,68.93
2023-03-27T14:58:19.409Z,69.14
2023-03-27T15:01:43.566Z,67.28
2023-03-27T15:05:12.050Z,65.53
2023-03-27T15:08:37.052Z,66.91
2023-03-27T15:12:01.262Z,65.79
2023-03-27T15:15:28.132Z,65.35
2023-03-27T15:19:15.324Z,64.72
2023-03-27T15:22:42.090Z,70.68
2023-03-27T15:26:20.445Z,63.61
2023-03-27T15:29:53.528Z,64.30
2023-03-27T15:33:22.056Z,64.16
2023-03-27T15:36:56.989Z,64.29
2023-03-27T15:40:24.740Z,64.76
2023-03-27T15:43:52.071Z,64.87
2023-03-27T15:47:26.057Z,63.00
2023-03-27T15:50:58.562Z,63.67
2023-03-27T15:54:32.603Z,63.90
2023-03-27T15:58:00.305Z,62.78
2023-03-27T16:01:27.455Z,62.64
2023-03-27T16:04:56.823Z,62.43
2023-03-27T16:08:36.983Z,62.71
2023-03-27T16:11:59.720Z,60.42
2023-03-27T16:15:34.872Z,60.67
2023-03-27T16:19:11.036Z,61.43
2023-03-27T16:22:36.732Z,60.87
2023-03-27T16:26:00.293Z,61.59
2023-03-27T16:29:23.945Z,61.21
2023-03-27T16:32:46.238Z,60.96
2023-03-27T16:36:11.418Z,60.92
2023-03-27T16:39:33.599Z,60.27
2023-03-27T16:42:55.552Z,61.13
2023-03-27T16:46:17.609Z,60.38
2023-03-27T16:49:39.801Z,60.24
2023-03-27T16:53:01.539Z,60.28
2023-03-27T16:56:23.362Z,60.77
2023-03-27T16:59:44.940Z,59.86
2023-03-27T17:03:06.824Z,60.15
2023-03-27T17:06:28.459Z,59.53
2023-03-27T17:09:51.686Z,59.78
2023-03-27T17:13:18.429Z,57.81
2023-03-27T17:16:42.686Z,58.76
2023-03-27T17:20:07.954Z,58.34
2023-03-27T17:23:31.891Z,58.33
2023-03-27T17:26:53.562Z,57.82
2023-03-27T17:30:21.455Z,58.58
2023-03-27T17:33:51.124Z,59.09
2023-03-27T17:37:12.769Z,58.40
2023-03-27T17:40:39.573Z,59.53
2023-03-27T17:44:01.307Z,58.65
2023-03-27T17:47:22.945Z,58.11
2023-03-27T17:50:54.810Z,57.19
2023-03-27T17:54:27.602Z,57.08
2023-03-27T17:58:01.866Z,56.91
2023-03-27T18:01:29.697Z,55.74
2023-03-27T18:04:54.313Z,55.32
2023-03-27T18:08:17.477Z,55.56
2023-03-27T18:11:39.042Z,55.15
2023-03-27T18:15:00.781Z,56.27
2023-03-27T18:18:22.778Z,56.16
2023-03-27T18:21:44.407Z,56.47
2023-03-27T18:25:10.168Z,55.80
2023-03-27T18:28:34.815Z,55.47
2023-03-27T18:31:59.322Z,55.78
2023-03-27T18:35:21.156Z,55.41
2023-03-27T18:38:42.928Z,55.47
2023-03-27T18:42:08.768Z,55.53
2023-03-27T18:45:30.417Z,54.34
2023-03-27T18:48:52.107Z,54.53
2023-03-27T18:52:16.146Z,54.86
2023-03-27T18:55:40.324Z,54.96
2023-03-27T18:59:01.988Z,54.82
2023-03-27T19:02:23.696Z,53.92
2023-03-27T19:05:46.119Z,54.57
2023-03-27T19:09:07.858Z,54.29
2023-03-27T19:12:32.128Z,54.06
2023-03-27T19:15:53.773Z,53.28
2023-03-27T19:19:15.354Z,53.22
2023-03-27T19:22:36.987Z,52.87
2023-03-27T19:26:09.712Z,53.26
2023-03-27T19:29:31.480Z,53.20
2023-03-27T19:32:55.676Z,53.33
2023-03-27T19:36:20.008Z,58.51
2023-03-27T19:39:41.675Z,61.42
2023-03-27T19:43:03.571Z,58.95
2023-03-27T19:46:29.166Z,60.98
2023-03-27T19:49:50.873Z,56.64
2023-03-27T19:53:12.942Z,56.68
2023-03-27T19:56:35.167Z,53.59
2023-03-27T19:59:56.895Z,53.19
2023-03-27T20:03:24.358Z,53.41
2023-03-27T20:06:47.053Z,53.59
2023-03-27T20:10:09.090Z,53.61
2023-03-27T20:13:30.770Z,54.13
2023-03-27T20:16:54.662Z,54.19
2023-03-27T20:20:16.726Z,53.06
2023-03-27T20:23:38.586Z,53.05
2023-03-27T20:27:03.601Z,52.65
2023-03-27T20:30:25.535Z,52.68
2023-03-27T20:33:47.524Z,53.08
2023-03-27T20:37:12.363Z,52.60
2023-03-27T20:40:53.382Z,51.88
2023-03-27T20:44:17.573Z,51.62
2023-03-27T20:47:43.123Z,51.87
2023-03-27T20:51:06.617Z,51.98
2023-03-27T20:54:29.205Z,52.69
2023-03-27T20:57:50.849Z,51.65
2023-03-27T21:01:14.946Z,52.44
2023-03-27T21:04:38.947Z,51.48
2023-03-27T21:08:03.507Z,51.70
2023-03-27T21:11:27.603Z,52.17
2023-03-27T21:14:51.625Z,51.58
2023-03-27T21:18:13.267Z,55.77
2023-03-27T21:21:37.647Z,60.49
2023-03-27T21:24:59.381Z,59.91
2023-03-27T21:28:21.020Z,55.73
2023-03-27T21:31:43.086Z,50.45
2023-03-27T21:35:08.660Z,51.36
2023-03-27T21:38:33.130Z,52.83
2023-03-27T21:41:54.666Z,51.86
2023-03-27T21:45:21.298Z,52.46
2023-03-27T21:48:50.202Z,52.21
2023-03-27T21:52:11.835Z,52.30
2023-03-27T21:55:37.893Z,51.71
2023-03-27T21:58:59.538Z,51.18
2023-03-27T22:02:24.055Z,51.83
2023-03-27T22:05:54.551Z,50.95
2023-03-27T22:09:32.187Z,50.18
2023-03-27T22:12:53.926Z,51.29
2023-03-27T22:16:17.372Z,50.85
2023-03-27T22:19:39.352Z,51.34
2023-03-27T22:23:03.142Z,50.38
2023-03-27T22:26:35.788Z,51.23
2023-03-27T22:29:59.676Z,50.65
2023-03-27T22:33:26.215Z,50.21
2023-03-27T22:36:47.829Z,50.74
2023-03-27T22:40:12.368Z,50.57
2023-03-27T22:43:36.134Z,50.43
2023-03-27T22:46:59.992Z,50.09
2023-03-27T22:50:23.907Z,50.17
2023-03-27T22:53:48.225Z,50.17
2023-03-27T22:57:12.286Z,48.79
2023-03-27T23:00:33.934Z,50.80
2023-03-27T23:03:55.872Z,51.85
2023-03-27T23:07:17.657Z,50.89
2023-03-27T23:10:41.529Z,50.41
2023-03-27T23:14:03.156Z,49.70
2023-03-27T23:17:24.787Z,49.82
2023-03-27T23:20:46.391Z,50.74
2023-03-27T23:24:08.094Z,50.15
2023-03-27T23:27:32.380Z,50.84
2023-03-27T23:30:59.466Z,50.41
2023-03-27T23:34:23.299Z,51.22
2023-03-27T23:37:47.645Z,51.18
2023-03-27T23:41:11.970Z,51.28
2023-03-27T23:44:35.964Z,51.73
2023-03-27T23:47:57.636Z,51.64
2023-03-27T23:51:19.269Z,50.26
2023-03-27T23:54:41.224Z,49.58
2023-03-27T23:58:07.789Z,49.71
